Time;durP1;ratioP1;P1;durP2;ratioP2;P2;SDS_P1;SDS_P2;PMS_P1;PMS_P2;Temp;Humidity;BMP_temperature;BMP_pressure;BME280_temperature;BME280_humidity;BME280_pressure;Samples;Min_cycle;Max_cycle;Signal;HPM_P1;HPM_P2
2024/01/01 00:00:06;;;;;;;69.53;53.30;;;7.40;98.00;;;;;;5104163;28;20444;-77
2024/01/01 00:02:32;;;;;;;68.22;49.17;;;7.40;98.60;;;;;;5107116;28;20404;-77
2024/01/01 00:04:58;;;;;;;72.05;49.80;;;7.40;98.60;;;;;;5102915;28;20544;-77
2024/01/01 00:07:24;;;;;;;83.25;63.63;;;7.40;98.40;;;;;;5106654;28;20503;-77
2024/01/01 00:09:49;;;;;;;55.92;43.25;;;7.40;98.60;;;;;;5087836;28;20513;-77
2024/01/01 00:12:15;;;;;;;67.53;50.23;;;7.40;98.60;;;;;;5104014;28;20448;-77
2024/01/01 00:14:41;;;;;;;56.17;40.73;;;7.40;98.50;;;;;;5100838;28;20470;-77
2024/01/01 00:17:06;;;;;;;41.30;28.17;;;7.40;98.80;;;;;;5105316;28;20523;-77
2024/01/01 00:19:33;;;;;;;46.90;31.90;;;7.40;98.70;;;;;;5090104;28;20398;-77
2024/01/01 00:21:59;;;;;;;39.90;24.15;;;7.40;98.70;;;;;;5105579;28;20405;-77
2024/01/01 00:24:24;;;;;;;40.00;27.25;;;7.40;98.70;;;;;;5091755;28;20404;-77
2024/01/01 00:26:50;;;;;;;59.47;43.53;;;7.40;98.60;;;;;;5105062;28;20388;-77
2024/01/01 00:29:15;;;;;;;49.50;36.43;;;7.40;98.70;;;;;;5099526;28;20413;-76
2024/01/01 00:31:42;;;;;;;44.65;30.00;;;7.40;98.90;;;;;;5103670;28;20439;-77
2024/01/01 00:34:08;;;;;;;43.65;28.02;;;7.40;98.90;;;;;;5091919;28;21229;-77
2024/01/01 00:36:34;;;;;;;47.35;34.63;;;7.50;98.80;;;;;;5103002;28;20507;-77
2024/01/01 00:39:00;;;;;;;54.60;40.00;;;7.40;98.80;;;;;;5099779;28;20498;-77
2024/01/01 00:41:25;;;;;;;63.30;46.30;;;7.40;98.70;;;;;;5104140;28;20393;-77
2024/01/01 00:43:51;;;;;;;62.25;44.92;;;7.40;98.60;;;;;;5100339;28;20394;-77
2024/01/01 00:46:17;;;;;;;44.97;29.90;;;7.40;98.40;;;;;;5086259;28;20443;-77
2024/01/01 00:48:43;;;;;;;51.03;35.83;;;7.50;98.60;;;;;;5098644;28;20448;-77
2024/01/01 00:51:09;;;;;;;58.33;39.47;;;7.50;98.50;;;;;;5096656;28;20474;-77
2024/01/01 00:53:34;;;;;;;48.90;30.83;;;7.50;98.40;;;;;;5097242;28;20912;-77
2024/01/01 00:56:00;;;;;;;59.53;38.60;;;7.50;98.60;;;;;;5097279;28;20426;-77
2024/01/01 00:58:25;;;;;;;48.70;33.25;;;7.40;98.40;;;;;;5087376;28;20492;-78
2024/01/01 01:00:51;;;;;;;42.73;29.23;;;7.40;98.50;;;;;;5094122;28;20422;-77
2024/01/01 01:03:16;;;;;;;41.60;27.17;;;7.40;98.70;;;;;;5089635;28;20423;-77
2024/01/01 01:05:42;;;;;;;40.88;25.55;;;7.40;98.80;;;;;;5097328;28;20434;-77
2024/01/01 01:08:08;;;;;;;39.13;25.20;;;7.40;98.50;;;;;;5060970;28;20430;-77
2024/01/01 01:10:33;;;;;;;44.55;27.58;;;7.40;98.60;;;;;;5083849;28;20416;-77
2024/01/01 01:12:59;;;;;;;43.70;26.97;;;7.40;98.40;;;;;;5086158;28;20494;-77
2024/01/01 01:15:26;;;;;;;38.03;24.73;;;7.50;98.30;;;;;;5065542;28;20406;-77
2024/01/01 01:17:52;;;;;;;38.50;24.80;;;7.50;98.30;;;;;;5086660;28;20410;-78
2024/01/01 01:20:18;;;;;;;38.25;25.38;;;7.50;98.40;;;;;;5087129;28;20817;-77
2024/01/01 01:22:44;;;;;;;43.47;26.70;;;7.50;98.10;;;;;;5081688;28;20993;-77
2024/01/01 01:25:10;;;;;;;40.83;26.83;;;7.50;97.90;;;;;;5061293;28;20422;-77
2024/01/01 01:27:36;;;;;;;38.53;26.33;;;7.50;98.00;;;;;;5090664;28;20412;-77
2024/01/01 01:30:02;;;;;;;38.65;24.33;;;7.50;98.00;;;;;;5088344;28;20397;-78
2024/01/01 01:32:28;;;;;;;40.22;25.00;;;7.50;98.00;;;;;;5080505;28;20959;-78
2024/01/01 01:34:53;;;;;;;44.63;25.85;;;7.40;97.80;;;;;;5079037;28;20410;-78
2024/01/01 01:37:19;;;;;;;41.73;26.37;;;7.40;97.90;;;;;;5077645;28;20850;-77
2024/01/01 01:39:45;;;;;;;42.10;25.90;;;7.40;97.90;;;;;;5072525;28;20398;-78
2024/01/01 01:42:11;;;;;;;41.08;26.42;;;7.40;97.80;;;;;;5093351;28;20416;-78
2024/01/01 01:44:37;;;;;;;41.43;27.83;;;7.40;97.90;;;;;;5079482;28;21321;-78
2024/01/01 01:47:03;;;;;;;56.38;44.45;;;7.40;97.80;;;;;;5090354;28;20410;-77
2024/01/01 01:49:29;;;;;;;98.28;82.20;;;7.40;97.90;;;;;;5089746;28;20522;-77
2024/01/01 01:51:55;;;;;;;71.07;56.58;;;7.40;98.10;;;;;;5091870;28;20969;-77
2024/01/01 01:54:23;;;;;;;45.28;28.80;;;7.50;98.00;;;;;;5072851;28;20449;-77
2024/01/01 01:56:49;;;;;;;39.72;26.15;;;7.50;98.00;;;;;;5091247;28;20402;-77
2024/01/01 01:59:15;;;;;;;41.15;26.90;;;7.50;97.90;;;;;;5090213;28;20418;-77
2024/01/01 02:01:41;;;;;;;38.90;26.03;;;7.50;97.70;;;;;;5090706;28;20409;-77
2024/01/01 02:04:07;;;;;;;40.17;25.77;;;7.50;97.50;;;;;;5071611;28;20472;-77
2024/01/01 02:06:32;;;;;;;38.95;25.52;;;7.60;97.30;;;;;;5091588;28;20464;-77
2024/01/01 02:08:58;;;;;;;38.13;24.90;;;7.60;97.00;;;;;;5087885;28;20407;-78
2024/01/01 02:11:24;;;;;;;38.00;24.13;;;7.60;96.70;;;;;;5069758;28;20836;-78
2024/01/01 02:13:50;;;;;;;35.03;23.70;;;7.70;96.40;;;;;;5087890;28;20554;-77
2024/01/01 02:16:15;;;;;;;35.72;25.10;;;7.70;95.90;;;;;;5086660;28;20402;-77
2024/01/01 02:18:42;;;;;;;34.83;21.27;;;7.70;95.10;;;;;;5087892;28;20398;-77
2024/01/01 02:21:08;;;;;;;41.53;28.77;;;7.80;94.90;;;;;;5104786;28;20890;-77
2024/01/01 02:23:34;;;;;;;34.92;22.95;;;7.80;94.30;;;;;;5095344;28;20539;-77
2024/01/01 02:25:59;;;;;;;34.30;22.60;;;7.80;93.70;;;;;;5089999;28;20427;-77
2024/01/01 02:28:25;;;;;;;34.57;22.73;;;7.80;93.60;;;;;;5107819;28;20481;-77
2024/01/01 02:30:50;;;;;;;32.05;21.63;;;7.80;93.40;;;;;;5101736;28;20402;-77
2024/01/01 02:33:16;;;;;;;32.57;21.83;;;7.80;93.40;;;;;;5087825;28;20404;-77
2024/01/01 02:35:43;;;;;;;32.67;21.53;;;7.80;93.30;;;;;;5087894;28;20417;-77
2024/01/01 02:38:08;;;;;;;34.42;22.02;;;7.80;93.00;;;;;;5088282;28;20772;-77
2024/01/01 02:40:35;;;;;;;33.87;22.17;;;7.80;93.10;;;;;;5087862;28;20398;-77
2024/01/01 02:43:01;;;;;;;36.13;22.05;;;7.80;92.90;;;;;;5080241;28;20420;-77
2024/01/01 02:45:32;;;;;;;35.03;22.10;;;7.80;92.60;;;;;;5084516;28;20434;-77
2024/01/01 02:47:58;;;;;;;33.60;22.38;;;7.80;92.20;;;;;;5090322;28;20406;-77
2024/01/01 02:50:25;;;;;;;36.15;26.85;;;7.80;91.90;;;;;;5091561;28;20421;-77
2024/01/01 02:52:51;;;;;;;51.83;38.50;;;7.80;90.60;;;;;;5094811;28;20402;-77
2024/01/01 02:55:16;;;;;;;34.30;23.45;;;7.80;90.60;;;;;;5091591;28;20455;-76
2024/01/01 02:57:42;;;;;;;43.23;30.80;;;7.80;90.40;;;;;;5078615;28;20495;-76
2024/01/01 03:00:09;;;;;;;31.55;21.98;;;7.80;89.50;;;;;;5092137;28;20406;-77
2024/01/01 03:02:38;;;;;;;30.55;23.30;;;7.80;89.90;;;;;;5090742;28;20874;-76
2024/01/01 03:05:05;;;;;;;35.50;25.58;;;7.80;89.60;;;;;;5091178;28;20458;-76
2024/01/01 03:07:32;;;;;;;30.33;21.15;;;7.80;88.40;;;;;;5090786;28;21069;-76
2024/01/01 03:09:57;;;;;;;31.58;21.27;;;7.80;89.00;;;;;;5091054;28;20774;-77
2024/01/01 03:12:23;;;;;;;32.37;22.37;;;7.80;88.60;;;;;;5088570;28;20402;-77
2024/01/01 03:14:49;;;;;;;31.25;21.63;;;7.80;89.60;;;;;;5074129;28;20949;-77
2024/01/01 03:17:14;;;;;;;34.33;21.93;;;7.80;90.30;;;;;;5086490;28;20408;-77
2024/01/01 03:19:40;;;;;;;30.07;21.73;;;7.70;90.60;;;;;;5086018;28;20402;-77
2024/01/01 03:22:05;;;;;;;35.30;23.67;;;7.70;91.10;;;;;;5088821;28;20403;-77
2024/01/01 03:24:31;;;;;;;29.20;18.90;;;7.60;91.30;;;;;;5088120;28;20757;-77
2024/01/01 03:26:57;;;;;;;32.30;23.50;;;7.50;92.10;;;;;;5093075;28;20404;-77
2024/01/01 03:29:22;;;;;;;42.70;29.85;;;7.40;92.60;;;;;;5090267;28;20398;-77
2024/01/01 03:31:48;;;;;;;37.53;27.20;;;7.30;92.70;;;;;;5089753;28;20396;-77
2024/01/01 03:34:14;;;;;;;27.25;18.00;;;7.30;93.60;;;;;;5072464;28;20437;-77
2024/01/01 03:36:39;;;;;;;27.17;17.90;;;7.20;94.40;;;;;;5091311;28;20953;-77
2024/01/01 03:39:05;;;;;;;25.87;18.10;;;7.20;95.30;;;;;;5068804;28;20408;-77
2024/01/01 03:41:30;;;;;;;26.63;17.85;;;7.10;95.00;;;;;;5087478;28;21095;-77
2024/01/01 03:43:59;;;;;;;21.37;14.03;;;7.10;95.40;;;;;;5085756;28;20398;-77
2024/01/01 03:46:24;;;;;;;19.45;13.00;;;7.10;95.40;;;;;;5091232;28;20440;-77
2024/01/01 03:48:50;;;;;;;18.10;12.03;;;7.10;95.90;;;;;;5088769;28;20418;-77
2024/01/01 03:51:15;;;;;;;17.95;11.55;;;7.00;96.00;;;;;;5087760;28;20437;-77
2024/01/01 03:53:41;;;;;;;20.73;11.67;;;7.00;96.10;;;;;;5088780;28;20398;-77
2024/01/01 03:56:07;;;;;;;19.20;11.50;;;7.00;96.40;;;;;;5092666;28;20480;-77
2024/01/01 03:58:33;;;;;;;19.20;11.77;;;7.00;96.80;;;;;;5088885;28;20414;-77
2024/01/01 04:00:58;;;;;;;18.77;10.82;;;7.00;96.80;;;;;;5091759;28;21096;-77
2024/01/01 04:03:24;;;;;;;21.03;11.20;;;7.00;96.80;;;;;;5089267;28;20413;-77
2024/01/01 04:05:49;;;;;;;20.65;12.30;;;7.00;97.30;;;;;;5091775;28;20790;-77
2024/01/01 04:08:15;;;;;;;21.60;12.05;;;7.00;97.50;;;;;;5092503;28;20410;-77
2024/01/01 04:10:41;;;;;;;21.03;12.30;;;7.00;97.40;;;;;;5078611;28;20409;-77
2024/01/01 04:13:06;;;;;;;23.10;12.20;;;7.00;97.60;;;;;;5093146;28;20403;-77
2024/01/01 04:15:32;;;;;;;17.63;10.30;;;7.00;97.40;;;;;;5093380;28;20505;-77
2024/01/01 04:17:57;;;;;;;18.73;9.93;;;7.00;97.40;;;;;;5074736;28;20406;-77
2024/01/01 04:20:23;;;;;;;15.93;8.73;;;6.90;97.20;;;;;;5096737;28;20922;-77
2024/01/01 04:22:51;;;;;;;18.67;9.27;;;6.90;97.40;;;;;;5097443;28;20484;-77
2024/01/01 04:25:20;;;;;;;23.05;9.68;;;6.90;98.00;;;;;;5103394;28;20443;-77
2024/01/01 04:27:46;;;;;;;16.48;8.18;;;6.90;98.10;;;;;;5092946;28;20780;-77
2024/01/01 04:30:13;;;;;;;15.38;7.28;;;6.80;97.80;;;;;;5102730;28;20396;-77
2024/01/01 04:32:39;;;;;;;13.10;6.95;;;6.90;98.20;;;;;;5084679;28;20421;-76
2024/01/01 04:35:05;;;;;;;12.52;6.25;;;6.80;98.30;;;;;;5102726;28;20766;-77
2024/01/01 04:37:30;;;;;;;14.68;6.30;;;6.80;98.10;;;;;;5097093;28;20788;-77
2024/01/01 04:39:56;;;;;;;12.37;6.03;;;6.80;98.20;;;;;;5077920;28;20428;-77
2024/01/01 04:42:21;;;;;;;12.45;6.07;;;6.80;98.60;;;;;;5096999;28;20506;-77
2024/01/01 04:44:47;;;;;;;14.90;6.20;;;6.80;98.70;;;;;;5102644;28;20431;-77
2024/01/01 04:47:13;;;;;;;15.67;5.77;;;6.80;98.80;;;;;;5096419;28;20409;-77
2024/01/01 04:49:40;;;;;;;14.88;5.15;;;6.80;98.80;;;;;;5096263;28;20489;-77
2024/01/01 04:52:06;;;;;;;16.35;5.15;;;6.80;99.10;;;;;;5080826;28;20818;-77
2024/01/01 04:54:32;;;;;;;15.43;6.43;;;6.80;99.00;;;;;;5104521;28;20493;-78
2024/01/01 04:56:57;;;;;;;11.45;4.47;;;6.80;99.30;;;;;;5090899;28;20414;-78
2024/01/01 04:59:23;;;;;;;13.70;4.50;;;6.80;99.10;;;;;;5094322;28;20404;-79
2024/01/01 05:01:48;;;;;;;13.07;4.37;;;6.80;99.20;;;;;;5083888;28;20409;-79
2024/01/01 05:04:15;;;;;;;12.23;4.32;;;6.80;99.40;;;;;;5094486;28;20404;-79
2024/01/01 05:06:40;;;;;;;10.80;4.28;;;6.70;99.20;;;;;;5091703;28;20990;-79
2024/01/01 05:09:06;;;;;;;11.30;3.87;;;6.70;99.30;;;;;;5095024;28;20496;-79
2024/01/01 05:11:33;;;;;;;11.47;3.87;;;6.80;99.50;;;;;;5091954;28;20410;-79
2024/01/01 05:13:59;;;;;;;10.90;3.65;;;6.70;99.70;;;;;;5090920;28;20410;-79
2024/01/01 05:16:25;;;;;;;11.23;3.88;;;6.80;99.90;;;;;;5091450;28;20413;-78
2024/01/01 05:18:51;;;;;;;11.37;3.80;;;6.70;99.80;;;;;;5091851;28;20394;-79
2024/01/01 05:21:16;;;;;;;11.45;3.50;;;6.70;99.90;;;;;;5091999;28;20888;-79
2024/01/01 05:23:42;;;;;;;12.73;4.53;;;6.70;99.90;;;;;;5094844;28;20415;-79
2024/01/01 05:26:08;;;;;;;10.47;3.77;;;6.70;99.90;;;;;;5073868;28;20438;-77
2024/01/01 05:28:33;;;;;;;10.60;3.90;;;6.80;99.90;;;;;;5093567;28;20791;-77
2024/01/01 05:30:59;;;;;;;11.90;4.13;;;6.70;99.90;;;;;;5091713;28;20434;-78
2024/01/01 05:33:24;;;;;;;11.87;3.80;;;6.70;99.90;;;;;;5091623;28;20394;-77
2024/01/01 05:35:50;;;;;;;11.65;3.78;;;6.70;99.90;;;;;;5091533;28;20915;-77
2024/01/01 05:38:17;;;;;;;11.53;4.03;;;6.70;99.90;;;;;;5092622;28;20405;-77
2024/01/01 05:40:44;;;;;;;9.27;3.45;;;6.70;99.90;;;;;;5089820;28;20406;-77
2024/01/01 05:43:10;;;;;;;10.70;3.53;;;6.70;99.90;;;;;;5092495;28;20513;-77
2024/01/01 05:45:35;;;;;;;13.68;3.95;;;6.70;99.90;;;;;;5071798;28;20987;-77
2024/01/01 05:48:01;;;;;;;11.45;4.15;;;6.70;99.90;;;;;;5088122;28;20465;-78
2024/01/01 05:50:28;;;;;;;12.90;3.93;;;6.70;99.90;;;;;;5088445;28;20409;-77
2024/01/01 05:52:54;;;;;;;9.50;3.30;;;6.70;99.90;;;;;;5091098;28;20419;-78
2024/01/01 05:55:19;;;;;;;11.43;3.33;;;6.70;99.90;;;;;;5072747;28;20406;-77
2024/01/01 05:57:45;;;;;;;13.77;3.63;;;6.70;99.90;;;;;;5094047;28;20412;-77
2024/01/01 06:00:12;;;;;;;11.30;3.47;;;6.70;99.90;;;;;;5090046;28;20984;-78
2024/01/01 06:02:38;;;;;;;12.05;3.47;;;6.70;99.90;;;;;;5092225;28;20504;-77
2024/01/01 06:05:04;;;;;;;11.60;3.53;;;6.70;99.90;;;;;;5086922;28;21305;-78
2024/01/01 06:07:29;;;;;;;10.60;3.20;;;6.70;99.90;;;;;;5092533;28;20828;-77
2024/01/01 06:09:57;;;;;;;12.05;3.13;;;6.70;99.90;;;;;;5090290;28;20406;-78
2024/01/01 06:12:23;;;;;;;10.05;3.30;;;6.60;99.90;;;;;;5093092;28;20754;-78
2024/01/01 06:14:49;;;;;;;13.33;3.53;;;6.60;99.90;;;;;;5073316;28;20406;-77
2024/01/01 06:17:14;;;;;;;10.47;3.00;;;6.70;99.90;;;;;;5093541;28;20488;-77
2024/01/01 06:19:40;;;;;;;10.13;3.60;;;6.70;99.90;;;;;;5073699;28;20394;-77
2024/01/01 06:22:05;;;;;;;12.73;3.30;;;6.60;99.90;;;;;;5092587;28;20412;-77
2024/01/01 06:24:31;;;;;;;11.83;3.27;;;6.70;99.90;;;;;;5089638;28;20406;-77
2024/01/01 06:26:57;;;;;;;11.55;3.50;;;6.60;99.90;;;;;;5092207;28;20400;-77
2024/01/01 06:29:26;;;;;;;11.03;3.43;;;6.70;99.90;;;;;;5088003;28;20398;-78
2024/01/01 06:31:53;;;;;;;11.63;2.88;;;6.70;99.90;;;;;;5093607;28;20411;-77
2024/01/01 06:34:19;;;;;;;11.65;3.08;;;6.70;99.90;;;;;;5091099;28;20840;-77
2024/01/01 06:36:45;;;;;;;9.50;2.92;;;6.70;99.90;;;;;;5093659;28;20468;-77
2024/01/01 06:39:11;;;;;;;9.25;2.95;;;6.70;99.90;;;;;;5091246;28;20397;-77
2024/01/01 06:41:36;;;;;;;10.93;2.97;;;6.70;99.90;;;;;;5094129;28;20796;-77
2024/01/01 06:44:02;;;;;;;11.48;3.42;;;6.80;99.90;;;;;;5090553;28;21096;-77
2024/01/01 06:46:27;;;;;;;10.67;3.10;;;6.80;99.90;;;;;;5092491;28;20428;-77
2024/01/01 06:48:53;;;;;;;10.53;3.23;;;6.80;99.90;;;;;;5089549;28;20478;-77
2024/01/01 06:51:19;;;;;;;10.18;3.30;;;6.80;99.90;;;;;;5089259;28;20761;-77
2024/01/01 06:53:44;;;;;;;10.07;2.80;;;6.80;99.90;;;;;;5088893;28;20784;-77
2024/01/01 06:56:10;;;;;;;11.10;2.80;;;6.80;99.90;;;;;;5092265;28;20506;-76
2024/01/01 06:58:36;;;;;;;8.80;2.65;;;6.80;99.90;;;;;;5079152;28;20959;-77
2024/01/01 07:01:02;;;;;;;8.73;2.67;;;6.80;99.90;;;;;;5092807;28;20430;-78
2024/01/01 07:03:29;;;;;;;10.13;2.80;;;6.90;99.90;;;;;;5090191;28;20500;-78
2024/01/01 07:05:54;;;;;;;9.70;2.90;;;6.90;99.90;;;;;;5089672;28;20463;-77
2024/01/01 07:08:20;;;;;;;9.33;2.33;;;6.80;99.90;;;;;;5088715;28;20410;-77
2024/01/01 07:10:48;;;;;;;9.88;2.70;;;6.80;99.90;;;;;;5091144;28;20398;-76
2024/01/01 07:13:13;;;;;;;8.17;2.37;;;6.90;99.90;;;;;;5077982;28;20441;-77
2024/01/01 07:15:39;;;;;;;10.40;2.70;;;6.90;99.90;;;;;;5089700;28;20797;-77
2024/01/01 07:18:06;;;;;;;10.57;2.72;;;6.90;99.90;;;;;;5088334;28;20398;-76
2024/01/01 07:20:32;;;;;;;10.27;3.05;;;6.90;99.90;;;;;;5087442;28;20412;-77
2024/01/01 07:22:57;;;;;;;11.67;3.13;;;7.00;99.90;;;;;;5088841;28;20958;-78
2024/01/01 07:25:24;;;;;;;14.23;3.03;;;7.00;99.90;;;;;;5089061;28;21012;-77
2024/01/01 07:27:50;;;;;;;11.85;3.40;;;7.00;99.90;;;;;;5087950;28;20483;-78
2024/01/01 07:30:16;;;;;;;11.38;3.35;;;6.90;99.90;;;;;;5089376;28;20449;-78
2024/01/01 07:32:41;;;;;;;13.05;3.40;;;7.00;99.90;;;;;;5088091;28;20431;-78
2024/01/01 07:35:08;;;;;;;10.37;3.00;;;7.00;99.90;;;;;;5071459;28;20495;-78
2024/01/01 07:37:35;;;;;;;11.18;2.90;;;6.90;99.90;;;;;;5087146;28;20551;-77
2024/01/01 07:40:01;;;;;;;10.65;2.72;;;6.90;99.90;;;;;;5089525;28;20928;-78
2024/01/01 07:42:27;;;;;;;9.85;2.70;;;6.90;99.90;;;;;;5072221;28;20494;-77
2024/01/01 07:44:53;;;;;;;8.80;2.55;;;6.90;99.90;;;;;;5092191;28;20554;-78
2024/01/01 07:47:19;;;;;;;13.30;3.40;;;6.90;99.90;;;;;;5090779;28;20448;-78
2024/01/01 07:49:45;;;;;;;11.95;2.85;;;6.90;99.90;;;;;;5091357;28;20425;-79
2024/01/01 07:52:14;;;;;;;11.50;2.78;;;6.90;99.90;;;;;;5089259;28;20410;-79
2024/01/01 07:54:40;;;;;;;10.20;2.67;;;6.90;99.90;;;;;;5091918;28;20406;-79
2024/01/01 07:57:06;;;;;;;12.00;2.75;;;6.90;99.90;;;;;;5092278;28;20459;-79
2024/01/01 07:59:32;;;;;;;8.50;2.17;;;6.90;99.90;;;;;;5094886;28;20465;-79
2024/01/01 08:01:58;;;;;;;8.47;2.80;;;6.90;99.90;;;;;;5092458;28;20406;-79
2024/01/01 08:04:24;;;;;;;9.87;2.23;;;6.90;99.90;;;;;;5092051;28;20402;-79
2024/01/01 08:06:49;;;;;;;6.70;1.30;;;6.80;99.90;;;;;;5092042;28;20430;-79
2024/01/01 08:09:15;;;;;;;5.63;0.83;;;6.80;99.90;;;;;;5096080;28;20949;-78
2024/01/01 08:11:40;;;;;;;6.20;1.10;;;6.70;99.90;;;;;;5091788;28;20497;-78
2024/01/01 08:14:06;;;;;;;6.10;1.20;;;6.60;99.90;;;;;;5089369;28;20405;-79
2024/01/01 08:16:34;;;;;;;6.90;1.07;;;6.60;99.90;;;;;;5092099;28;20431;-79
2024/01/01 08:19:00;;;;;;;7.30;1.20;;;6.50;99.90;;;;;;5094776;28;20464;-79
2024/01/01 08:21:25;;;;;;;4.22;0.60;;;6.40;99.90;;;;;;5091401;28;20410;-78
2024/01/01 08:23:51;;;;;;;4.28;0.80;;;6.40;99.90;;;;;;5076082;28;20407;-79
2024/01/01 08:26:17;;;;;;;3.78;0.55;;;6.30;99.90;;;;;;5092806;28;20429;-79
2024/01/01 08:28:43;;;;;;;4.90;0.63;;;6.30;99.90;;;;;;5093379;28;20396;-79
2024/01/01 08:31:08;;;;;;;6.75;0.68;;;6.30;99.90;;;;;;5091472;28;20409;-79
2024/01/01 08:33:34;;;;;;;3.50;0.55;;;6.30;99.90;;;;;;5076503;28;20713;-79
2024/01/01 08:36:00;;;;;;;2.63;0.50;;;6.20;99.90;;;;;;5090119;28;20806;-79
2024/01/01 08:38:25;;;;;;;6.07;0.70;;;6.20;99.90;;;;;;5091814;28;21103;-79
2024/01/01 08:40:51;;;;;;;2.97;0.50;;;6.30;99.90;;;;;;5072945;28;20458;-78
2024/01/01 08:43:17;;;;;;;3.00;0.70;;;6.20;99.90;;;;;;5091027;28;20413;-78
2024/01/01 08:45:42;;;;;;;4.20;0.60;;;6.20;99.90;;;;;;5089832;28;20433;-78
2024/01/01 08:48:08;;;;;;;2.67;0.50;;;6.20;99.90;;;;;;5090872;28;20915;-78
2024/01/01 08:50:34;;;;;;;3.27;0.60;;;6.20;99.90;;;;;;5090747;28;20402;-78
2024/01/01 08:52:59;;;;;;;3.00;0.60;;;6.30;99.90;;;;;;5091162;28;20456;-78
2024/01/01 08:55:25;;;;;;;5.28;0.82;;;6.30;99.90;;;;;;5086719;28;20477;-78
2024/01/01 08:57:51;;;;;;;6.47;1.00;;;6.30;99.90;;;;;;5068343;28;20567;-78
2024/01/01 09:00:17;;;;;;;3.90;0.90;;;6.30;99.90;;;;;;5086467;28;20453;-78
2024/01/01 09:02:43;;;;;;;5.40;0.80;;;6.30;99.90;;;;;;5063069;28;20982;-79
2024/01/01 09:05:08;;;;;;;4.83;0.90;;;6.30;99.90;;;;;;5078492;28;20440;-78
2024/01/01 09:07:35;;;;;;;6.50;1.25;;;6.30;99.90;;;;;;5087164;28;20410;-78
2024/01/01 09:10:02;;;;;;;7.30;1.13;;;6.40;99.90;;;;;;5068607;28;20440;-76
2024/01/01 09:12:29;;;;;;;6.72;1.33;;;6.40;99.90;;;;;;5085728;28;20401;-77
2024/01/01 09:14:55;;;;;;;9.52;1.88;;;6.50;99.90;;;;;;5088044;28;20714;-78
2024/01/01 09:17:21;;;;;;;7.83;1.50;;;6.50;99.90;;;;;;5079002;28;20417;-78
2024/01/01 09:19:46;;;;;;;5.40;0.80;;;6.60;99.90;;;;;;5088919;28;20883;-78
2024/01/01 09:22:12;;;;;;;6.70;1.20;;;6.50;99.90;;;;;;5086248;28;20972;-78
2024/01/01 09:24:38;;;;;;;6.65;1.35;;;6.60;99.90;;;;;;5082639;28;20408;-78
2024/01/01 09:27:04;;;;;;;5.20;0.80;;;6.60;99.90;;;;;;5080722;28;20782;-78
2024/01/01 09:29:30;;;;;;;4.53;0.80;;;6.60;99.90;;;;;;5086443;28;20473;-78
2024/01/01 09:31:55;;;;;;;6.43;1.07;;;6.60;99.90;;;;;;5083640;28;20868;-80
2024/01/01 09:34:21;;;;;;;4.85;0.90;;;6.50;99.90;;;;;;5087974;28;20409;-80
2024/01/01 09:36:47;;;;;;;4.78;1.17;;;6.50;99.90;;;;;;5084680;28;20461;-80
2024/01/01 09:39:12;;;;;;;4.90;0.90;;;6.50;99.90;;;;;;5088195;28;20430;-79
2024/01/01 09:41:38;;;;;;;5.40;0.63;;;6.50;99.90;;;;;;5092461;28;20900;-80
2024/01/01 09:44:04;;;;;;;7.03;0.93;;;6.50;99.90;;;;;;5090125;28;20827;-79
2024/01/01 09:46:33;;;;;;;7.47;1.50;;;6.40;99.90;;;;;;5091153;28;20421;-79
2024/01/01 09:49:02;;;;;;;4.75;1.27;;;6.50;99.90;;;;;;5072531;28;20418;-79
2024/01/01 09:51:28;;;;;;;6.93;1.38;;;6.40;99.90;;;;;;5089564;28;20952;-80
2024/01/01 09:53:54;;;;;;;4.88;1.20;;;6.40;99.90;;;;;;5090132;28;20402;-80
2024/01/01 09:56:21;;;;;;;5.50;1.17;;;6.40;99.90;;;;;;5087261;28;20783;-79
2024/01/01 09:58:47;;;;;;;4.07;0.93;;;6.40;99.90;;;;;;5084526;28;20422;-79
2024/01/01 10:01:16;;;;;;;4.67;0.80;;;6.40;99.90;;;;;;5092965;28;20407;-79
2024/01/01 10:03:42;;;;;;;3.42;0.82;;;6.40;99.90;;;;;;5088150;28;20414;-79
2024/01/01 10:06:09;;;;;;;5.93;0.93;;;6.40;99.90;;;;;;5093623;28;20420;-78
2024/01/01 10:08:35;;;;;;;3.13;0.65;;;6.40;99.90;;;;;;5090405;28;20453;-79
2024/01/01 10:11:19;;;;;;;4.43;0.60;;;6.40;99.90;;;;;;5091941;28;20822;-78
2024/01/01 10:13:45;;;;;;;3.63;0.60;;;6.40;99.90;;;;;;5089285;28;20444;-79
2024/01/01 10:16:31;;;;;;;3.40;0.70;;;6.30;99.90;;;;;;5092341;28;20410;-79
2024/01/01 10:18:58;;;;;;;4.15;0.70;;;6.30;99.90;;;;;;5091616;28;20913;-79
2024/01/01 10:21:29;;;;;;;4.68;0.70;;;6.30;99.90;;;;;;5087245;28;20419;-79
2024/01/01 10:23:55;;;;;;;5.53;1.00;;;6.40;99.90;;;;;;5074618;28;20408;-79
2024/01/01 10:26:21;;;;;;;6.20;0.90;;;6.40;99.90;;;;;;5072505;28;20434;-79
2024/01/01 10:28:47;;;;;;;5.80;0.80;;;6.50;99.90;;;;;;5091744;28;20411;-80
2024/01/01 10:31:13;;;;;;;5.68;1.00;;;6.50;99.90;;;;;;5080595;28;20394;-80
2024/01/01 10:33:41;;;;;;;6.38;1.02;;;6.50;99.90;;;;;;5092049;28;20408;-79
2024/01/01 10:36:07;;;;;;;4.97;0.80;;;6.60;99.90;;;;;;5089069;28;20406;-79
2024/01/01 10:38:35;;;;;;;4.95;0.75;;;6.60;99.90;;;;;;5089308;28;20898;-79
2024/01/01 10:41:01;;;;;;;4.53;0.80;;;6.60;99.90;;;;;;5091495;28;20409;-79
2024/01/01 10:43:27;;;;;;;5.47;0.98;;;6.60;99.90;;;;;;5088523;28;20490;-79
2024/01/01 10:46:06;;;;;;;5.75;0.90;;;6.60;99.90;;;;;;5093136;28;20512;-80
2024/01/01 10:48:33;;;;;;;6.65;1.00;;;6.70;99.90;;;;;;5095734;28;20411;-79
2024/01/01 10:51:21;;;;;;;5.82;1.25;;;6.70;99.90;;;;;;5105785;28;20451;-79
2024/01/01 10:54:10;;;;;;;6.80;1.10;;;6.60;99.90;;;;;;5087996;28;20509;-79
2024/01/01 10:56:49;;;;;;;6.72;1.10;;;6.70;99.90;;;;;;5089920;28;20908;-79
2024/01/01 10:59:20;;;;;;;8.80;1.50;;;6.80;99.90;;;;;;5086519;28;20417;-79
2024/01/01 11:01:48;;;;;;;7.55;1.35;;;6.80;99.90;;;;;;5086767;28;20498;-79
2024/01/01 11:04:18;;;;;;;7.80;1.40;;;6.90;99.90;;;;;;5088742;28;20453;-80
2024/01/01 11:06:47;;;;;;;10.02;1.48;;;6.90;99.90;;;;;;5086675;28;20479;-79
2024/01/01 11:09:19;;;;;;;10.50;1.67;;;7.00;99.90;;;;;;5084709;28;20453;-79
2024/01/01 11:11:49;;;;;;;11.48;1.70;;;7.00;99.90;;;;;;5086761;28;20421;-79
2024/01/01 11:14:34;;;;;;;11.17;2.47;;;7.10;99.90;;;;;;5086974;28;20482;-78
2024/01/01 11:17:06;;;;;;;9.45;2.00;;;7.10;99.90;;;;;;5090696;28;20425;-79
2024/01/01 11:19:48;;;;;;;10.17;1.70;;;7.20;99.90;;;;;;5069947;28;20509;-79
2024/01/01 11:22:20;;;;;;;11.00;2.05;;;7.30;99.90;;;;;;5093269;28;20542;-79
2024/01/01 11:24:47;;;;;;;11.48;2.17;;;7.40;99.90;;;;;;5092274;28;20408;-79
2024/01/01 11:27:28;;;;;;;12.13;2.30;;;7.40;99.90;;;;;;5093748;28;20479;-78
2024/01/01 11:30:03;;;;;;;12.55;2.22;;;7.40;99.90;;;;;;5090731;28;20464;-79
2024/01/01 11:32:29;;;;;;;11.57;1.90;;;7.50;99.90;;;;;;5090666;28;20509;-78
2024/01/01 11:35:07;;;;;;;15.75;2.25;;;7.50;99.90;;;;;;5089397;28;20493;-79
2024/01/01 11:37:34;;;;;;;12.18;1.55;;;7.50;99.90;;;;;;5080886;28;20401;-78
2024/01/01 11:40:02;;;;;;;14.18;2.00;;;7.40;99.90;;;;;;5091962;28;20406;-79
2024/01/01 11:42:28;;;;;;;13.20;1.77;;;7.50;99.90;;;;;;5094158;28;20406;-78
2024/01/01 11:45:16;;;;;;;10.43;2.28;;;7.50;99.90;;;;;;5089785;28;20455;-79
2024/01/01 11:47:43;;;;;;;10.65;1.65;;;7.60;99.90;;;;;;5089884;28;20410;-78
2024/01/01 11:50:10;;;;;;;10.80;1.93;;;7.60;99.90;;;;;;5090248;28;20528;-78
2024/01/01 11:52:36;;;;;;;11.10;1.93;;;7.50;99.90;;;;;;5090513;28;21040;-79
2024/01/01 11:55:03;;;;;;;9.80;1.67;;;7.60;99.90;;;;;;5091708;28;20494;-78
2024/01/01 11:57:29;;;;;;;10.55;1.52;;;7.60;99.90;;;;;;5087762;28;20410;-78
2024/01/01 11:59:54;;;;;;;11.02;1.67;;;7.60;99.90;;;;;;5094842;28;20463;-78
2024/01/01 12:02:21;;;;;;;10.23;1.98;;;7.70;99.90;;;;;;5093853;28;20484;-79
2024/01/01 12:04:50;;;;;;;9.13;1.85;;;7.70;99.90;;;;;;5094755;28;20449;-79
2024/01/01 12:07:33;;;;;;;11.48;1.65;;;7.70;99.90;;;;;;5093275;28;20459;-79
2024/01/01 12:10:06;;;;;;;11.45;1.80;;;7.70;99.90;;;;;;5081209;28;20771;-79
2024/01/01 12:12:34;;;;;;;12.35;2.15;;;7.60;99.90;;;;;;5091862;28;20408;-79
2024/01/01 12:15:30;;;;;;;8.23;1.47;;;7.60;99.90;;;;;;5090766;28;20938;-79
2024/01/01 12:17:55;;;;;;;10.77;1.58;;;7.50;99.90;;;;;;5104328;28;20417;-78
2024/01/01 12:20:23;;;;;;;9.57;1.52;;;7.50;99.90;;;;;;5093042;28;20402;-78
2024/01/01 12:22:50;;;;;;;9.27;1.57;;;7.50;99.90;;;;;;5090634;28;20402;-79
2024/01/01 12:25:20;;;;;;;7.75;1.30;;;7.50;99.90;;;;;;5091241;28;20433;-79
2024/01/01 12:28:06;;;;;;;9.05;1.50;;;7.40;99.90;;;;;;5078274;28;20437;-79
2024/01/01 12:30:33;;;;;;;8.43;1.40;;;7.40;99.90;;;;;;5090132;28;20406;-79
2024/01/01 12:32:59;;;;;;;8.48;1.30;;;7.40;99.90;;;;;;5081658;28;20802;-78
2024/01/01 12:35:25;;;;;;;9.93;1.80;;;7.40;99.90;;;;;;5088929;28;20512;-78
2024/01/01 12:37:51;;;;;;;8.57;1.48;;;7.50;99.90;;;;;;5089936;28;20422;-78
2024/01/01 12:40:17;;;;;;;10.27;1.80;;;7.60;99.90;;;;;;5091909;28;20405;-79
2024/01/01 12:42:44;;;;;;;10.85;1.70;;;7.70;99.90;;;;;;5090743;28;20409;-79